createdAt,value
2017-09-18T00:01:23.036Z,75.21
2017-09-18T00:03:51.181Z,76.59
2017-09-18T00:06:18.681Z,77.11
2017-09-18T00:08:46.261Z,76.72
2017-09-18T00:11:16.252Z,76.21
2017-09-18T00:13:43.774Z,78.10
2017-09-18T00:16:13.221Z,77.69
2017-09-18T00:18:49.952Z,76.62
2017-09-18T00:21:21.924Z,75.96
2017-09-18T00:23:50.784Z,76.21
2017-09-18T00:26:30.243Z,75.75
2017-09-18T00:29:10.705Z,75.97
2017-09-18T00:34:20.136Z,75.31
2017-09-18T00:36:47.600Z,75.08
2017-09-18T00:39:15.096Z,75.29
2017-09-18T00:41:42.664Z,75.31
2017-09-18T00:44:10.200Z,75.48
2017-09-18T00:46:37.691Z,75.10
2017-09-18T00:49:05.200Z,74.64
2017-09-18T00:51:32.708Z,74.11
2017-09-18T00:54:00.189Z,74.14
2017-09-18T00:56:28.769Z,74.19
2017-09-18T00:58:56.246Z,74.95
2017-09-18T01:01:23.704Z,74.97
2017-09-18T01:03:51.211Z,75.28
2017-09-18T01:06:18.692Z,74.54
2017-09-18T01:08:46.233Z,75.18
2017-09-18T01:11:13.736Z,74.80
2017-09-18T01:13:41.239Z,75.17
2017-09-18T01:16:08.749Z,75.93
2017-09-18T01:18:36.546Z,75.69
2017-09-18T01:21:04.463Z,75.58
2017-09-18T01:23:32.052Z,75.06
2017-09-18T01:26:07.341Z,75.72
2017-09-18T01:28:34.809Z,76.26
2017-09-18T01:31:02.299Z,76.08
2017-09-18T01:33:29.820Z,75.41
2017-09-18T01:35:58.024Z,74.89
2017-09-18T01:38:25.521Z,75.42
2017-09-18T01:40:52.996Z,74.90
2017-09-18T01:43:20.529Z,74.43
2017-09-18T01:45:48.250Z,74.63
2017-09-18T01:48:15.757Z,74.69
2017-09-18T01:50:43.210Z,74.60
2017-09-18T01:53:10.706Z,74.35
2017-09-18T01:55:38.159Z,75.12
2017-09-18T01:58:06.808Z,74.66
2017-09-18T02:00:34.296Z,74.95
2017-09-18T02:03:02.318Z,74.76
2017-09-18T02:05:29.824Z,74.85
2017-09-18T02:07:57.631Z,73.96
2017-09-18T02:10:25.180Z,73.60
2017-09-18T02:12:52.656Z,74.35
2017-09-18T02:15:20.112Z,74.19
2017-09-18T02:17:47.600Z,73.64
2017-09-18T02:20:15.086Z,73.69
2017-09-18T02:22:42.670Z,73.90
2017-09-18T02:25:10.214Z,73.77
2017-09-18T02:27:37.835Z,73.33
2017-09-18T02:30:05.324Z,72.70
2017-09-18T02:32:32.779Z,73.17
2017-09-18T02:35:00.305Z,73.85
2017-09-18T02:37:27.974Z,73.73
2017-09-18T02:39:57.217Z,73.98
2017-09-18T02:42:24.732Z,73.01
2017-09-18T02:44:52.208Z,73.35
2017-09-18T02:47:19.692Z,75.41
2017-09-18T02:49:47.161Z,74.53
2017-09-18T02:52:14.661Z,75.01
2017-09-18T02:54:42.121Z,73.90
2017-09-18T02:57:09.606Z,75.16
2017-09-18T02:59:37.081Z,74.38
2017-09-18T03:02:04.556Z,73.68
2017-09-18T03:04:32.223Z,74.05
2017-09-18T03:09:44.966Z,73.18
2017-09-18T03:12:12.791Z,73.07
2017-09-18T03:17:51.683Z,74.90
2017-09-18T03:20:21.342Z,74.25
2017-09-18T03:22:48.853Z,74.39
2017-09-18T03:25:16.323Z,74.07
2017-09-18T03:27:44.169Z,74.46
2017-09-18T03:30:11.777Z,73.67
2017-09-18T03:32:39.255Z,74.25
2017-09-18T03:35:06.729Z,74.69
2017-09-18T03:37:34.249Z,73.88
2017-09-18T03:40:07.640Z,74.32
2017-09-18T03:42:35.213Z,74.44
2017-09-18T03:45:03.025Z,74.56
2017-09-18T03:47:31.220Z,74.46
2017-09-18T03:49:58.745Z,74.71
2017-09-18T03:52:26.250Z,74.77
2017-09-18T03:54:59.973Z,74.74
2017-09-18T03:57:31.674Z,75.01
2017-09-18T04:00:00.466Z,74.94
2017-09-18T04:02:27.981Z,74.79
2017-09-18T04:05:07.239Z,76.10
2017-09-18T04:07:35.001Z,76.84
2017-09-18T04:10:02.535Z,75.54
2017-09-18T14:25:31.629Z,52.92
2017-09-18T14:27:59.280Z,55.52
2017-09-18T14:30:26.770Z,54.91
2017-09-18T14:32:54.269Z,54.61
2017-09-18T14:35:21.903Z,54.19
2017-09-18T14:37:50.155Z,55.24
2017-09-18T14:40:17.616Z,54.72
2017-09-18T14:42:45.199Z,54.40
2017-09-18T14:45:12.696Z,54.07
2017-09-18T14:47:40.308Z,54.51
2017-09-18T14:50:07.818Z,54.89
2017-09-18T14:52:35.459Z,54.27
2017-09-18T14:55:02.916Z,54.98
2017-09-18T14:57:30.688Z,53.95
2017-09-18T14:59:58.436Z,54.84
2017-09-18T15:02:26.296Z,55.42
2017-09-18T15:04:54.402Z,55.60
2017-09-18T15:07:21.892Z,53.75
2017-09-18T15:09:49.617Z,53.39
2017-09-18T15:12:17.380Z,54.64
2017-09-18T15:14:44.976Z,54.03
2017-09-18T15:17:12.670Z,53.79
2017-09-18T15:19:40.195Z,54.03
2017-09-18T15:22:07.817Z,53.94
2017-09-18T15:24:35.315Z,54.01
2017-09-18T15:27:02.801Z,52.81
2017-09-18T15:29:30.282Z,53.35
2017-09-18T15:31:57.903Z,51.04
2017-09-18T15:34:25.594Z,50.25
2017-09-18T15:36:53.101Z,49.09
2017-09-18T15:39:20.576Z,50.84
2017-09-18T15:41:48.086Z,51.33
2017-09-18T15:44:15.837Z,51.19
2017-09-18T15:46:43.312Z,51.10
2017-09-18T15:49:11.801Z,52.74
2017-09-18T15:51:39.302Z,53.86
2017-09-18T15:54:06.771Z,52.54
2017-09-18T15:56:34.260Z,53.93
2017-09-18T15:59:01.711Z,53.41
2017-09-18T16:01:29.215Z,53.79
2017-09-18T16:03:56.672Z,54.49
2017-09-18T16:06:24.139Z,55.18
2017-09-18T16:08:51.623Z,54.23
2017-09-18T16:11:19.078Z,53.97
2017-09-18T16:13:46.576Z,53.45
2017-09-18T16:16:14.686Z,52.33
2017-09-18T16:18:42.137Z,52.74
2017-09-18T16:21:09.624Z,53.31
2017-09-18T16:23:37.564Z,53.04
2017-09-18T16:26:05.078Z,54.36
2017-09-18T16:28:32.570Z,53.23
2017-09-18T16:31:00.260Z,53.58
2017-09-18T16:33:27.755Z,52.50
2017-09-18T16:35:55.205Z,51.21
2017-09-18T16:38:22.711Z,51.90
2017-09-18T16:40:50.178Z,52.84
2017-09-18T16:43:17.640Z,53.67
2017-09-18T16:45:45.162Z,53.34
2017-09-18T16:48:12.811Z,52.77
2017-09-18T16:50:40.304Z,52.87
2017-09-18T16:53:07.762Z,53.49
2017-09-18T16:55:35.461Z,54.49
2017-09-18T16:58:02.959Z,55.69
2017-09-18T17:00:30.549Z,57.32
2017-09-18T17:02:58.025Z,57.66
2017-09-18T17:05:25.481Z,57.70
2017-09-18T17:07:52.992Z,57.60
2017-09-18T17:10:20.817Z,57.57
2017-09-18T17:12:48.291Z,57.25
2017-09-18T17:15:15.788Z,57.03
2017-09-18T17:17:43.310Z,57.53
2017-09-18T17:20:10.840Z,58.99
2017-09-18T17:22:38.348Z,59.58
2017-09-18T17:25:05.838Z,60.25
2017-09-18T17:27:33.301Z,61.31
2017-09-18T17:30:00.805Z,61.13
2017-09-18T17:32:28.294Z,61.30
2017-09-18T17:34:55.760Z,61.71
2017-09-18T17:37:23.248Z,61.72
2017-09-18T17:39:50.716Z,61.77
2017-09-18T17:42:18.414Z,61.66
2017-09-18T17:44:45.895Z,61.71
2017-09-18T17:47:13.386Z,61.67
2017-09-18T17:49:40.874Z,62.56
2017-09-18T17:52:08.344Z,62.79
2017-09-18T17:54:35.843Z,63.02
2017-09-18T17:57:03.344Z,63.17
2017-09-18T17:59:30.853Z,63.51
2017-09-18T18:01:58.339Z,63.95
2017-09-18T18:04:25.860Z,64.43
2017-09-18T18:06:53.329Z,65.37
2017-09-18T18:09:20.815Z,64.79
2017-09-18T18:11:48.329Z,64.22
2017-09-18T18:14:15.808Z,63.88
2017-09-18T18:16:43.342Z,63.81
2017-09-18T18:19:10.853Z,63.71
2017-09-18T18:21:38.373Z,63.27
2017-09-18T18:24:05.848Z,63.57
2017-09-18T18:26:33.373Z,64.05
2017-09-18T18:29:00.858Z,64.13
2017-09-18T18:31:28.355Z,64.38
2017-09-18T18:34:01.254Z,64.66
2017-09-18T18:36:29.011Z,64.83
2017-09-18T18:38:57.178Z,65.06
2017-09-18T18:41:24.900Z,65.03
2017-09-18T18:43:53.492Z,65.31
2017-09-18T18:46:20.973Z,65.49
2017-09-18T18:48:48.711Z,65.59
2017-09-18T18:51:16.246Z,65.89
2017-09-18T18:53:43.748Z,65.81
2017-09-18T18:56:11.269Z,65.66
2017-09-18T18:58:38.740Z,65.39
2017-09-18T19:01:06.239Z,65.28
2017-09-18T19:03:33.727Z,65.45
2017-09-18T19:06:01.454Z,65.65
2017-09-18T19:08:29.020Z,65.65
2017-09-18T19:10:57.003Z,66.58
2017-09-18T19:13:24.527Z,66.95
2017-09-18T19:15:52.143Z,66.80
2017-09-18T19:18:19.666Z,66.69
2017-09-18T19:20:47.694Z,66.57
2017-09-18T19:23:15.195Z,66.72
2017-09-18T19:25:42.834Z,66.13
2017-09-18T19:28:10.307Z,65.98
2017-09-18T19:30:37.808Z,66.64
2017-09-18T19:33:05.292Z,67.17
2017-09-18T19:35:32.850Z,66.94
2017-09-18T19:38:00.363Z,67.46
2017-09-18T19:40:28.180Z,67.61
2017-09-18T19:42:56.111Z,67.41
2017-09-18T19:45:23.717Z,67.77
2017-09-18T19:47:51.910Z,67.82
2017-09-18T19:50:20.072Z,67.59
2017-09-18T19:52:48.530Z,67.48
2017-09-18T19:55:17.100Z,67.38
2017-09-18T19:57:45.173Z,67.53
2017-09-18T20:00:12.967Z,68.00
2017-09-18T20:02:40.771Z,68.15
2017-09-18T20:05:08.989Z,67.86
2017-09-18T20:07:41.614Z,67.96
2017-09-18T20:10:10.679Z,67.97
2017-09-18T20:12:47.369Z,68.70
2017-09-18T20:15:16.295Z,68.92
2017-09-18T20:17:46.229Z,69.24
2017-09-18T20:20:22.366Z,68.81
2017-09-18T20:22:54.609Z,68.45
2017-09-18T20:25:23.464Z,68.33
2017-09-18T20:27:53.034Z,68.73
2017-09-18T20:30:21.732Z,68.93
2017-09-18T20:32:49.712Z,68.94
2017-09-18T20:35:17.575Z,69.03
2017-09-18T20:37:46.563Z,68.50
2017-09-18T20:40:16.880Z,68.24
2017-09-18T20:42:45.996Z,68.75
2017-09-18T20:45:14.477Z,69.62
2017-09-18T20:47:42.841Z,69.39
2017-09-18T20:50:11.423Z,69.60
2017-09-18T20:52:40.865Z,69.96
2017-09-18T20:55:09.786Z,69.72
2017-09-18T20:57:38.593Z,69.84
2017-09-18T21:00:06.251Z,69.34
2017-09-18T21:02:35.319Z,69.13
2017-09-18T21:05:04.993Z,69.52
2017-09-18T21:07:34.237Z,69.55
2017-09-18T21:10:01.887Z,69.54
2017-09-18T21:12:33.218Z,69.22
2017-09-18T21:15:02.246Z,69.38
2017-09-18T21:17:30.443Z,69.58
2017-09-18T21:19:59.274Z,69.38
2017-09-18T21:22:27.678Z,69.02
2017-09-18T21:24:55.591Z,68.94
2017-09-18T21:27:24.276Z,69.12
2017-09-18T21:29:53.378Z,69.54
2017-09-18T21:32:22.061Z,69.78
2017-09-18T21:34:50.321Z,69.75
2017-09-18T21:37:18.143Z,69.88
2017-09-18T21:39:47.016Z,69.85
2017-09-18T21:42:15.052Z,70.31
2017-09-18T21:44:43.161Z,70.57
2017-09-18T21:47:11.438Z,70.82
2017-09-18T21:49:40.845Z,71.14
2017-09-18T21:52:09.027Z,71.25
2017-09-18T21:54:38.517Z,71.45
2017-09-18T21:57:06.554Z,71.34
2017-09-18T21:59:34.592Z,71.47
2017-09-18T22:02:02.589Z,71.74
2017-09-18T22:04:31.597Z,71.75
2017-09-18T22:07:00.208Z,71.55
2017-09-18T22:09:28.477Z,71.38
2017-09-18T22:12:15.426Z,71.53
2017-09-18T22:14:43.544Z,71.87
2017-09-18T22:17:13.189Z,72.02
2017-09-18T22:19:40.758Z,72.08
2017-09-18T22:22:09.551Z,72.20
2017-09-18T22:24:37.621Z,72.31
2017-09-18T22:27:05.938Z,72.45
2017-09-18T22:29:36.495Z,72.42
2017-09-18T22:32:06.393Z,72.49
2017-09-18T22:34:39.450Z,72.26
2017-09-18T22:37:10.161Z,72.27
2017-09-18T22:39:41.364Z,72.32
2017-09-18T22:42:10.039Z,73.75
2017-09-18T22:44:38.469Z,72.96
2017-09-18T22:47:07.130Z,72.52
2017-09-18T22:49:36.161Z,72.33
2017-09-18T22:52:08.630Z,72.27
2017-09-18T22:54:38.792Z,72.31
2017-09-18T22:57:07.993Z,72.08
2017-09-18T22:59:37.417Z,72.22
2017-09-18T23:02:07.735Z,72.51
2017-09-18T23:04:37.548Z,72.58
2017-09-18T23:07:07.487Z,72.85
2017-09-18T23:09:36.654Z,72.69
2017-09-18T23:12:05.092Z,72.60
2017-09-18T23:14:32.684Z,73.01
2017-09-18T23:17:01.126Z,73.05
2017-09-18T23:19:30.117Z,73.34
2017-09-18T23:21:59.214Z,73.60
2017-09-18T23:24:28.542Z,73.65
2017-09-18T23:26:58.910Z,73.78
2017-09-18T23:29:32.746Z,73.16
2017-09-18T23:32:06.853Z,74.40
2017-09-18T23:34:35.368Z,73.69
2017-09-18T23:37:04.340Z,73.51
2017-09-18T23:39:33.726Z,73.33
2017-09-18T23:42:08.679Z,73.73
2017-09-18T23:44:39.234Z,73.08
2017-09-18T23:47:08.484Z,73.15
2017-09-18T23:49:37.764Z,73.94
2017-09-18T23:52:11.342Z,73.20
2017-09-18T23:54:41.562Z,73.01
2017-09-18T23:57:09.880Z,73.29
2017-09-18T23:59:39.421Z,72.89
